sensor_id;sensor_type;location;lat;lon;timestamp;P1;durP1;ratioP1;P2;durP2;ratioP2
23280;SDS011;11809;56.390;-3.266;2023-06-22T00:01:46;11.63;;;3.15;;
23280;SDS011;11809;56.390;-3.266;2023-06-22T00:04:14;6.93;;;2.70;;
23280;SDS011;11809;56.390;-3.266;2023-06-22T00:06:41;7.38;;;3.05;;
23280;SDS011;11809;56.390;-3.266;2023-06-22T00:09:08;6.15;;;2.75;;
23280;SDS011;11809;56.390;-3.266;2023-06-22T00:11:37;9.02;;;2.60;;
23280;SDS011;11809;56.390;-3.266;2023-06-22T00:14:04;7.55;;;2.60;;
23280;SDS011;11809;56.390;-3.266;2023-06-22T00:16:32;7.75;;;3.00;;
23280;SDS011;11809;56.390;-3.266;2023-06-22T00:18:59;5.82;;;2.60;;
23280;SDS011;11809;56.390;-3.266;2023-06-22T00:21:28;6.95;;;2.53;;
23280;SDS011;11809;56.390;-3.266;2023-06-22T00:23:56;6.72;;;2.90;;
23280;SDS011;11809;56.390;-3.266;2023-06-22T00:26:23;7.57;;;2.80;;
23280;SDS011;11809;56.390;-3.266;2023-06-22T00:28:51;4.65;;;2.28;;
23280;SDS011;11809;56.390;-3.266;2023-06-22T00:31:18;5.60;;;2.30;;
23280;SDS011;11809;56.390;-3.266;2023-06-22T00:33:45;5.80;;;2.70;;
23280;SDS011;11809;56.390;-3.266;2023-06-22T00:36:13;6.80;;;2.47;;
23280;SDS011;11809;56.390;-3.266;2023-06-22T00:38:42;3.28;;;2.45;;
23280;SDS011;11809;56.390;-3.266;2023-06-22T00:41:10;10.38;;;2.60;;
23280;SDS011;11809;56.390;-3.266;2023-06-22T00:43:37;5.03;;;2.60;;
23280;SDS011;11809;56.390;-3.266;2023-06-22T00:46:04;2.90;;;2.30;;
23280;SDS011;11809;56.390;-3.266;2023-06-22T00:48:31;2.85;;;2.30;;
23280;SDS011;11809;56.390;-3.266;2023-06-22T00:50:58;2.65;;;2.45;;
23280;SDS011;11809;56.390;-3.266;2023-06-22T00:53:25;3.47;;;2.90;;
23280;SDS011;11809;56.390;-3.266;2023-06-22T00:55:53;5.63;;;2.38;;
23280;SDS011;11809;56.390;-3.266;2023-06-22T00:58:20;9.48;;;2.22;;
23280;SDS011;11809;56.390;-3.266;2023-06-22T01:00:48;2.95;;;2.05;;
23280;SDS011;11809;56.390;-3.266;2023-06-22T01:03:15;4.15;;;2.42;;
23280;SDS011;11809;56.390;-3.266;2023-06-22T01:05:44;3.28;;;2.10;;
23280;SDS011;11809;56.390;-3.266;2023-06-22T01:08:38;5.05;;;2.30;;
23280;SDS011;11809;56.390;-3.266;2023-06-22T01:12:00;4.32;;;2.60;;
23280;SDS011;11809;56.390;-3.266;2023-06-22T01:14:14;5.95;;;2.33;;
23280;SDS011;11809;56.390;-3.266;2023-06-22T01:16:47;2.50;;;2.30;;
23280;SDS011;11809;56.390;-3.266;2023-06-22T01:19:29;3.28;;;2.20;;
23280;SDS011;11809;56.390;-3.266;2023-06-22T01:22:28;2.95;;;2.22;;
23280;SDS011;11809;56.390;-3.266;2023-06-22T01:25:09;3.33;;;2.33;;
23280;SDS011;11809;56.390;-3.266;2023-06-22T01:28:03;3.50;;;2.55;;
23280;SDS011;11809;56.390;-3.266;2023-06-22T01:33:13;2.20;;;2.00;;
23280;SDS011;11809;56.390;-3.266;2023-06-22T01:35:41;3.35;;;2.25;;
23280;SDS011;11809;56.390;-3.266;2023-06-22T01:38:09;1.95;;;1.85;;
23280;SDS011;11809;56.390;-3.266;2023-06-22T01:40:36;5.95;;;2.25;;
23280;SDS011;11809;56.390;-3.266;2023-06-22T01:43:04;2.30;;;2.10;;
23280;SDS011;11809;56.390;-3.266;2023-06-22T01:45:32;2.15;;;1.95;;
23280;SDS011;11809;56.390;-3.266;2023-06-22T01:47:59;8.07;;;2.50;;
23280;SDS011;11809;56.390;-3.266;2023-06-22T01:50:27;4.10;;;2.25;;
23280;SDS011;11809;56.390;-3.266;2023-06-22T01:52:55;3.00;;;2.00;;
23280;SDS011;11809;56.390;-3.266;2023-06-22T01:55:22;3.05;;;1.98;;
23280;SDS011;11809;56.390;-3.266;2023-06-22T01:57:49;2.67;;;1.95;;
23280;SDS011;11809;56.390;-3.266;2023-06-22T02:00:20;2.90;;;2.15;;
23280;SDS011;11809;56.390;-3.266;2023-06-22T02:05:23;2.85;;;2.05;;
23280;SDS011;11809;56.390;-3.266;2023-06-22T02:07:54;2.97;;;2.35;;
23280;SDS011;11809;56.390;-3.266;2023-06-22T02:10:34;2.70;;;2.28;;
23280;SDS011;11809;56.390;-3.266;2023-06-22T02:13:04;2.63;;;2.25;;
23280;SDS011;11809;56.390;-3.266;2023-06-22T02:15:33;3.08;;;1.95;;
23280;SDS011;11809;56.390;-3.266;2023-06-22T02:18:00;5.28;;;2.13;;
23280;SDS011;11809;56.390;-3.266;2023-06-22T02:20:28;2.47;;;2.00;;
23280;SDS011;11809;56.390;-3.266;2023-06-22T02:22:55;2.13;;;1.73;;
23280;SDS011;11809;56.390;-3.266;2023-06-22T02:25:23;2.10;;;1.90;;
23280;SDS011;11809;56.390;-3.266;2023-06-22T02:27:50;2.92;;;2.10;;
23280;SDS011;11809;56.390;-3.266;2023-06-22T02:30:17;2.22;;;2.03;;
23280;SDS011;11809;56.390;-3.266;2023-06-22T02:32:44;3.60;;;1.80;;
23280;SDS011;11809;56.390;-3.266;2023-06-22T02:35:11;2.97;;;2.40;;
23280;SDS011;11809;56.390;-3.266;2023-06-22T02:37:38;4.15;;;2.05;;
23280;SDS011;11809;56.390;-3.266;2023-06-22T02:40:08;2.40;;;2.20;;
23280;SDS011;11809;56.390;-3.266;2023-06-22T02:42:36;4.75;;;2.20;;
23280;SDS011;11809;56.390;-3.266;2023-06-22T02:45:04;2.17;;;1.98;;
23280;SDS011;11809;56.390;-3.266;2023-06-22T02:47:31;4.78;;;2.22;;
23280;SDS011;11809;56.390;-3.266;2023-06-22T02:49:58;2.10;;;2.00;;
23280;SDS011;11809;56.390;-3.266;2023-06-22T02:52:25;2.30;;;2.10;;
23280;SDS011;11809;56.390;-3.266;2023-06-22T02:54:52;2.22;;;1.90;;
23280;SDS011;11809;56.390;-3.266;2023-06-22T02:57:19;2.30;;;2.10;;
23280;SDS011;11809;56.390;-3.266;2023-06-22T02:59:46;2.28;;;2.10;;
23280;SDS011;11809;56.390;-3.266;2023-06-22T03:02:14;2.50;;;2.30;;
23280;SDS011;11809;56.390;-3.266;2023-06-22T03:04:41;2.88;;;1.90;;
23280;SDS011;11809;56.390;-3.266;2023-06-22T03:07:09;2.00;;;1.88;;
23280;SDS011;11809;56.390;-3.266;2023-06-22T03:09:36;2.50;;;2.20;;
23280;SDS011;11809;56.390;-3.266;2023-06-22T03:12:03;2.50;;;2.00;;
23280;SDS011;11809;56.390;-3.266;2023-06-22T03:14:30;2.10;;;2.00;;
23280;SDS011;11809;56.390;-3.266;2023-06-22T03:16:57;3.15;;;2.17;;
23280;SDS011;11809;56.390;-3.266;2023-06-22T03:19:29;2.30;;;2.10;;
23280;SDS011;11809;56.390;-3.266;2023-06-22T03:21:59;2.38;;;2.00;;
23280;SDS011;11809;56.390;-3.266;2023-06-22T03:24:26;2.80;;;2.00;;
23280;SDS011;11809;56.390;-3.266;2023-06-22T03:26:56;3.35;;;2.15;;
23280;SDS011;11809;56.390;-3.266;2023-06-22T03:29:23;3.13;;;1.90;;
23280;SDS011;11809;56.390;-3.266;2023-06-22T03:31:55;2.30;;;1.92;;
23280;SDS011;11809;56.390;-3.266;2023-06-22T03:34:22;2.05;;;1.95;;
23280;SDS011;11809;56.390;-3.266;2023-06-22T03:36:49;2.35;;;2.15;;
23280;SDS011;11809;56.390;-3.266;2023-06-22T03:39:16;2.38;;;1.90;;
23280;SDS011;11809;56.390;-3.266;2023-06-22T03:41:43;3.83;;;1.90;;
23280;SDS011;11809;56.390;-3.266;2023-06-22T03:44:10;1.95;;;1.85;;
23280;SDS011;11809;56.390;-3.266;2023-06-22T03:46:39;2.72;;;1.98;;
23280;SDS011;11809;56.390;-3.266;2023-06-22T03:49:06;2.55;;;2.10;;
23280;SDS011;11809;56.390;-3.266;2023-06-22T03:51:33;2.83;;;1.83;;
23280;SDS011;11809;56.390;-3.266;2023-06-22T03:54:00;2.00;;;1.90;;
23280;SDS011;11809;56.390;-3.266;2023-06-22T03:56:27;2.33;;;2.10;;
23280;SDS011;11809;56.390;-3.266;2023-06-22T03:58:54;2.38;;;1.80;;
23280;SDS011;11809;56.390;-3.266;2023-06-22T04:01:22;3.25;;;1.90;;
23280;SDS011;11809;56.390;-3.266;2023-06-22T04:03:49;3.97;;;1.90;;
23280;SDS011;11809;56.390;-3.266;2023-06-22T04:06:16;1.75;;;1.58;;
23280;SDS011;11809;56.390;-3.266;2023-06-22T04:08:44;2.17;;;1.80;;
23280;SDS011;11809;56.390;-3.266;2023-06-22T04:11:14;2.65;;;2.20;;
23280;SDS011;11809;56.390;-3.266;2023-06-22T04:13:41;2.40;;;1.98;;
23280;SDS011;11809;56.390;-3.266;2023-06-22T04:16:08;1.92;;;1.83;;
23280;SDS011;11809;56.390;-3.266;2023-06-22T04:18:35;2.38;;;1.95;;
23280;SDS011;11809;56.390;-3.266;2023-06-22T04:21:03;3.08;;;2.00;;
23280;SDS011;11809;56.390;-3.266;2023-06-22T04:23:31;2.58;;;2.00;;
23280;SDS011;11809;56.390;-3.266;2023-06-22T04:25:58;3.90;;;1.70;;
23280;SDS011;11809;56.390;-3.266;2023-06-22T04:28:26;1.77;;;1.67;;
23280;SDS011;11809;56.390;-3.266;2023-06-22T04:30:53;2.20;;;2.00;;
23280;SDS011;11809;56.390;-3.266;2023-06-22T04:33:29;2.28;;;2.08;;
23280;SDS011;11809;56.390;-3.266;2023-06-22T04:35:56;1.85;;;1.75;;
23280;SDS011;11809;56.390;-3.266;2023-06-22T04:38:30;2.13;;;1.85;;
23280;SDS011;11809;56.390;-3.266;2023-06-22T04:40:59;4.57;;;1.90;;
23280;SDS011;11809;56.390;-3.266;2023-06-22T04:43:29;3.67;;;2.22;;
23280;SDS011;11809;56.390;-3.266;2023-06-22T04:45:57;4.78;;;1.90;;
23280;SDS011;11809;56.390;-3.266;2023-06-22T04:48:30;4.32;;;1.90;;
23280;SDS011;11809;56.390;-3.266;2023-06-22T04:51:01;4.07;;;2.08;;
23280;SDS011;11809;56.390;-3.266;2023-06-22T04:53:31;2.03;;;1.70;;
23280;SDS011;11809;56.390;-3.266;2023-06-22T04:55:58;2.10;;;1.90;;
23280;SDS011;11809;56.390;-3.266;2023-06-22T04:58:25;2.20;;;2.00;;
23280;SDS011;11809;56.390;-3.266;2023-06-22T05:00:59;19.98;;;2.72;;
23280;SDS011;11809;56.390;-3.266;2023-06-22T05:03:26;33.00;;;2.95;;
23280;SDS011;11809;56.390;-3.266;2023-06-22T05:05:56;15.13;;;2.40;;
23280;SDS011;11809;56.390;-3.266;2023-06-22T05:08:23;14.63;;;2.50;;
23280;SDS011;11809;56.390;-3.266;2023-06-22T05:10:53;9.95;;;2.08;;
23280;SDS011;11809;56.390;-3.266;2023-06-22T05:13:31;6.88;;;1.90;;
23280;SDS011;11809;56.390;-3.266;2023-06-22T05:15:58;5.72;;;2.20;;
23280;SDS011;11809;56.390;-3.266;2023-06-22T05:18:29;3.72;;;2.00;;
23280;SDS011;11809;56.390;-3.266;2023-06-22T05:20:58;8.80;;;2.38;;
23280;SDS011;11809;56.390;-3.266;2023-06-22T05:23:26;6.70;;;2.20;;
23280;SDS011;11809;56.390;-3.266;2023-06-22T05:25:53;8.00;;;2.55;;
23280;SDS011;11809;56.390;-3.266;2023-06-22T05:28:21;4.80;;;2.20;;
23280;SDS011;11809;56.390;-3.266;2023-06-22T05:30:49;4.18;;;2.30;;
23280;SDS011;11809;56.390;-3.266;2023-06-22T05:33:17;7.32;;;2.20;;
23280;SDS011;11809;56.390;-3.266;2023-06-22T05:35:44;13.18;;;2.58;;
23280;SDS011;11809;56.390;-3.266;2023-06-22T05:38:11;8.05;;;2.38;;
23280;SDS011;11809;56.390;-3.266;2023-06-22T05:40:38;12.93;;;2.50;;
23280;SDS011;11809;56.390;-3.266;2023-06-22T05:43:05;8.65;;;2.30;;
23280;SDS011;11809;56.390;-3.266;2023-06-22T05:45:32;6.95;;;2.63;;
23280;SDS011;11809;56.390;-3.266;2023-06-22T05:47:59;9.57;;;2.60;;
23280;SDS011;11809;56.390;-3.266;2023-06-22T05:50:26;7.82;;;2.40;;
23280;SDS011;11809;56.390;-3.266;2023-06-22T05:52:54;6.07;;;2.45;;
23280;SDS011;11809;56.390;-3.266;2023-06-22T05:55:21;30.10;;;4.05;;
23280;SDS011;11809;56.390;-3.266;2023-06-22T05:57:48;25.08;;;3.75;;
23280;SDS011;11809;56.390;-3.266;2023-06-22T06:00:15;18.17;;;3.08;;
23280;SDS011;11809;56.390;-3.266;2023-06-22T06:02:43;8.63;;;2.50;;
23280;SDS011;11809;56.390;-3.266;2023-06-22T06:05:11;16.00;;;2.95;;
23280;SDS011;11809;56.390;-3.266;2023-06-22T06:07:40;15.80;;;2.50;;
23280;SDS011;11809;56.390;-3.266;2023-06-22T06:10:09;13.35;;;2.78;;
23280;SDS011;11809;56.390;-3.266;2023-06-22T06:12:36;18.48;;;3.15;;
23280;SDS011;11809;56.390;-3.266;2023-06-22T06:15:04;23.63;;;3.55;;
23280;SDS011;11809;56.390;-3.266;2023-06-22T06:17:35;17.80;;;3.00;;
23280;SDS011;11809;56.390;-3.266;2023-06-22T06:20:03;19.10;;;3.15;;
23280;SDS011;11809;56.390;-3.266;2023-06-22T06:22:31;10.15;;;2.72;;
23280;SDS011;11809;56.390;-3.266;2023-06-22T06:24:59;28.20;;;3.05;;
23280;SDS011;11809;56.390;-3.266;2023-06-22T06:27:26;31.63;;;3.22;;
23280;SDS011;11809;56.390;-3.266;2023-06-22T06:29:56;11.65;;;2.83;;
23280;SDS011;11809;56.390;-3.266;2023-06-22T06:32:23;16.10;;;3.00;;
23280;SDS011;11809;56.390;-3.266;2023-06-22T06:34:50;14.75;;;2.63;;
23280;SDS011;11809;56.390;-3.266;2023-06-22T06:37:18;18.77;;;3.50;;
23280;SDS011;11809;56.390;-3.266;2023-06-22T06:39:45;16.45;;;3.10;;
23280;SDS011;11809;56.390;-3.266;2023-06-22T06:42:12;19.40;;;2.72;;
23280;SDS011;11809;56.390;-3.266;2023-06-22T06:44:39;17.30;;;2.92;;
23280;SDS011;11809;56.390;-3.266;2023-06-22T06:47:07;21.23;;;3.00;;
23280;SDS011;11809;56.390;-3.266;2023-06-22T06:49:34;15.45;;;2.60;;
23280;SDS011;11809;56.390;-3.266;2023-06-22T06:52:02;18.17;;;2.97;;
23280;SDS011;11809;56.390;-3.266;2023-06-22T06:54:29;20.10;;;3.45;;
23280;SDS011;11809;56.390;-3.266;2023-06-22T06:56:57;23.13;;;2.92;;
23280;SDS011;11809;56.390;-3.266;2023-06-22T06:59:24;12.57;;;2.67;;
23280;SDS011;11809;56.390;-3.266;2023-06-22T07:01:51;21.75;;;2.95;;
23280;SDS011;11809;56.390;-3.266;2023-06-22T07:04:19;15.15;;;2.80;;
23280;SDS011;11809;56.390;-3.266;2023-06-22T07:06:46;30.02;;;3.08;;
23280;SDS011;11809;56.390;-3.266;2023-06-22T07:09:13;16.13;;;3.15;;
23280;SDS011;11809;56.390;-3.266;2023-06-22T07:11:41;21.70;;;3.58;;
23280;SDS011;11809;56.390;-3.266;2023-06-22T07:14:08;10.30;;;3.65;;
23280;SDS011;11809;56.390;-3.266;2023-06-22T07:16:35;11.77;;;3.90;;
23280;SDS011;11809;56.390;-3.266;2023-06-22T07:19:02;13.52;;;3.58;;
23280;SDS011;11809;56.390;-3.266;2023-06-22T07:21:29;8.82;;;3.63;;
23280;SDS011;11809;56.390;-3.266;2023-06-22T07:23:57;16.13;;;3.80;;
23280;SDS011;11809;56.390;-3.266;2023-06-22T07:26:24;16.10;;;3.55;;
23280;SDS011;11809;56.390;-3.266;2023-06-22T07:28:51;9.95;;;3.00;;
23280;SDS011;11809;56.390;-3.266;2023-06-22T07:31:18;17.90;;;3.60;;
23280;SDS011;11809;56.390;-3.266;2023-06-22T07:33:47;23.00;;;3.97;;
23280;SDS011;11809;56.390;-3.266;2023-06-22T07:36:14;11.73;;;3.15;;
23280;SDS011;11809;56.390;-3.266;2023-06-22T07:38:44;11.60;;;2.80;;
23280;SDS011;11809;56.390;-3.266;2023-06-22T07:41:11;9.63;;;2.78;;
23280;SDS011;11809;56.390;-3.266;2023-06-22T07:43:38;10.98;;;3.13;;
23280;SDS011;11809;56.390;-3.266;2023-06-22T07:46:05;8.30;;;3.20;;
23280;SDS011;11809;56.390;-3.266;2023-06-22T07:48:32;8.23;;;2.55;;
23280;SDS011;11809;56.390;-3.266;2023-06-22T07:51:03;7.57;;;2.75;;
23280;SDS011;11809;56.390;-3.266;2023-06-22T07:53:30;8.82;;;2.72;;
23280;SDS011;11809;56.390;-3.266;2023-06-22T07:55:57;7.22;;;2.58;;
23280;SDS011;11809;56.390;-3.266;2023-06-22T07:58:24;7.25;;;2.70;;
23280;SDS011;11809;56.390;-3.266;2023-06-22T08:00:51;7.38;;;2.50;;
23280;SDS011;11809;56.390;-3.266;2023-06-22T08:03:18;4.57;;;2.58;;
23280;SDS011;11809;56.390;-3.266;2023-06-22T08:05:46;10.88;;;2.63;;
23280;SDS011;11809;56.390;-3.266;2023-06-22T08:08:15;30.65;;;3.15;;
23280;SDS011;11809;56.390;-3.266;2023-06-22T08:10:43;31.10;;;3.55;;
23280;SDS011;11809;56.390;-3.266;2023-06-22T08:13:10;26.80;;;4.10;;
23280;SDS011;11809;56.390;-3.266;2023-06-22T08:15:37;12.95;;;2.47;;
23280;SDS011;11809;56.390;-3.266;2023-06-22T08:18:05;16.52;;;3.10;;
23280;SDS011;11809;56.390;-3.266;2023-06-22T08:20:32;16.85;;;3.22;;
23280;SDS011;11809;56.390;-3.266;2023-06-22T08:23:00;36.40;;;4.53;;
23280;SDS011;11809;56.390;-3.266;2023-06-22T08:25:33;25.90;;;3.17;;
23280;SDS011;11809;56.390;-3.266;2023-06-22T08:28:01;38.20;;;4.20;;
23280;SDS011;11809;56.390;-3.266;2023-06-22T08:30:29;42.22;;;3.80;;
23280;SDS011;11809;56.390;-3.266;2023-06-22T08:32:57;39.67;;;3.78;;
23280;SDS011;11809;56.390;-3.266;2023-06-22T08:35:24;29.20;;;3.72;;
23280;SDS011;11809;56.390;-3.266;2023-06-22T08:37:52;29.77;;;3.95;;
23280;SDS011;11809;56.390;-3.266;2023-06-22T08:40:23;32.03;;;4.00;;
23280;SDS011;11809;56.390;-3.266;2023-06-22T08:42:51;33.97;;;3.88;;
23280;SDS011;11809;56.390;-3.266;2023-06-22T08:45:18;25.75;;;3.85;;
23280;SDS011;11809;56.390;-3.266;2023-06-22T08:47:45;22.77;;;2.92;;
23280;SDS011;11809;56.390;-3.266;2023-06-22T08:50:13;20.90;;;2.80;;
23280;SDS011;11809;56.390;-3.266;2023-06-22T08:52:40;20.23;;;3.05;;
23280;SDS011;11809;56.390;-3.266;2023-06-22T08:55:10;30.10;;;3.30;;
23280;SDS011;11809;56.390;-3.266;2023-06-22T08:57:37;21.73;;;3.30;;
23280;SDS011;11809;56.390;-3.266;2023-06-22T09:00:09;14.75;;;2.58;;
23280;SDS011;11809;56.390;-3.266;2023-06-22T09:02:43;16.75;;;2.92;;
23280;SDS011;11809;56.390;-3.266;2023-06-22T09:05:12;18.65;;;3.33;;
23280;SDS011;11809;56.390;-3.266;2023-06-22T09:07:40;9.77;;;2.45;;
23280;SDS011;11809;56.390;-3.266;2023-06-22T09:10:07;16.02;;;2.72;;
23280;SDS011;11809;56.390;-3.266;2023-06-22T09:12:35;16.20;;;3.00;;
23280;SDS011;11809;56.390;-3.266;2023-06-22T09:15:04;14.48;;;2.33;;
23280;SDS011;11809;56.390;-3.266;2023-06-22T09:17:39;18.42;;;2.45;;
23280;SDS011;11809;56.390;-3.266;2023-06-22T09:20:07;23.02;;;2.92;;
23280;SDS011;11809;56.390;-3.266;2023-06-22T09:22:37;14.20;;;2.40;;
23280;SDS011;11809;56.390;-3.266;2023-06-22T09:25:04;7.53;;;2.47;;
23280;SDS011;11809;56.390;-3.266;2023-06-22T09:27:33;13.13;;;2.55;;
23280;SDS011;11809;56.390;-3.266;2023-06-22T09:30:00;15.23;;;2.55;;
23280;SDS011;11809;56.390;-3.266;2023-06-22T09:32:27;7.60;;;1.95;;
23280;SDS011;11809;56.390;-3.266;2023-06-22T09:34:55;9.02;;;2.30;;
23280;SDS011;11809;56.390;-3.266;2023-06-22T09:37:22;49.15;;;4.25;;
23280;SDS011;11809;56.390;-3.266;2023-06-22T09:39:49;17.35;;;3.03;;
23280;SDS011;11809;56.390;-3.266;2023-06-22T09:42:16;12.60;;;2.65;;
23280;SDS011;11809;56.390;-3.266;2023-06-22T09:44:43;12.43;;;2.17;;
23280;SDS011;11809;56.390;-3.266;2023-06-22T09:47:10;38.85;;;4.43;;
23280;SDS011;11809;56.390;-3.266;2023-06-22T09:49:38;83.28;;;5.38;;
23280;SDS011;11809;56.390;-3.266;2023-06-22T09:52:13;37.17;;;3.70;;
23280;SDS011;11809;56.390;-3.266;2023-06-22T09:54:41;17.55;;;2.70;;
23280;SDS011;11809;56.390;-3.266;2023-06-22T09:57:08;13.50;;;2.75;;
23280;SDS011;11809;56.390;-3.266;2023-06-22T09:59:35;17.65;;;2.78;;
23280;SDS011;11809;56.390;-3.266;2023-06-22T10:02:02;11.82;;;2.30;;
23280;SDS011;11809;56.390;-3.266;2023-06-22T10:04:30;9.35;;;2.25;;
23280;SDS011;11809;56.390;-3.266;2023-06-22T10:06:58;8.98;;;2.53;;
23280;SDS011;11809;56.390;-3.266;2023-06-22T10:09:26;7.90;;;2.20;;
23280;SDS011;11809;56.390;-3.266;2023-06-22T10:11:53;8.60;;;2.35;;
23280;SDS011;11809;56.390;-3.266;2023-06-22T10:14:20;13.98;;;2.47;;
23280;SDS011;11809;56.390;-3.266;2023-06-22T10:16:48;13.50;;;2.30;;
23280;SDS011;11809;56.390;-3.266;2023-06-22T10:19:15;20.10;;;2.35;;
23280;SDS011;11809;56.390;-3.266;2023-06-22T10:21:43;15.85;;;2.67;;
23280;SDS011;11809;56.390;-3.266;2023-06-22T10:24:10;7.47;;;2.25;;
23280;SDS011;11809;56.390;-3.266;2023-06-22T10:26:37;7.28;;;2.53;;
23280;SDS011;11809;56.390;-3.266;2023-06-22T10:29:05;33.45;;;3.15;;
23280;SDS011;11809;56.390;-3.266;2023-06-22T10:31:43;11.15;;;2.70;;
23280;SDS011;11809;56.390;-3.266;2023-06-22T10:34:10;16.98;;;2.67;;
23280;SDS011;11809;56.390;-3.266;2023-06-22T10:36:38;9.55;;;2.45;;
23280;SDS011;11809;56.390;-3.266;2023-06-22T10:39:05;14.20;;;2.45;;
23280;SDS011;11809;56.390;-3.266;2023-06-22T10:41:33;17.13;;;2.60;;
23280;SDS011;11809;56.390;-3.266;2023-06-22T10:44:00;12.60;;;2.78;;
23280;SDS011;11809;56.390;-3.266;2023-06-22T10:46:27;23.52;;;2.75;;
23280;SDS011;11809;56.390;-3.266;2023-06-22T10:48:55;7.45;;;2.42;;
23280;SDS011;11809;56.390;-3.266;2023-06-22T10:51:24;13.73;;;2.40;;
23280;SDS011;11809;56.390;-3.266;2023-06-22T10:53:52;13.32;;;2.33;;
23280;SDS011;11809;56.390;-3.266;2023-06-22T10:56:19;16.70;;;2.67;;
23280;SDS011;11809;56.390;-3.266;2023-06-22T10:58:46;24.17;;;2.90;;
23280;SDS011;11809;56.390;-3.266;2023-06-22T11:01:14;48.28;;;3.47;;
23280;SDS011;11809;56.390;-3.266;2023-06-22T11:04:00;28.15;;;2.95;;
23280;SDS011;11809;56.390;-3.266;2023-06-22T11:06:28;25.63;;;3.55;;
23280;SDS011;11809;56.390;-3.266;2023-06-22T11:08:55;43.40;;;4.10;;
23280;SDS011;11809;56.390;-3.266;2023-06-22T11:11:37;32.58;;;4.35;;
23280;SDS011;11809;56.390;-3.266;2023-06-22T11:14:04;16.77;;;2.78;;
23280;SDS011;11809;56.390;-3.266;2023-06-22T11:16:32;47.42;;;4.25;;
23280;SDS011;11809;56.390;-3.266;2023-06-22T11:19:01;35.28;;;3.40;;
23280;SDS011;11809;56.390;-3.266;2023-06-22T11:21:30;27.60;;;3.28;;
23280;SDS011;11809;56.390;-3.266;2023-06-22T11:24:01;18.70;;;2.85;;
23280;SDS011;11809;56.390;-3.266;2023-06-22T11:26:28;19.90;;;2.47;;
23280;SDS011;11809;56.390;-3.266;2023-06-22T11:28:56;15.40;;;2.53;;
23280;SDS011;11809;56.390;-3.266;2023-06-22T11:31:23;21.10;;;3.00;;
23280;SDS011;11809;56.390;-3.266;2023-06-22T11:33:52;13.23;;;2.78;;
23280;SDS011;11809;56.390;-3.266;2023-06-22T11:36:19;14.15;;;2.67;;
23280;SDS011;11809;56.390;-3.266;2023-06-22T11:38:47;12.60;;;2.70;;
23280;SDS011;11809;56.390;-3.266;2023-06-22T11:41:14;8.80;;;2.10;;
23280;SDS011;11809;56.390;-3.266;2023-06-22T11:43:41;9.52;;;2.50;;
23280;SDS011;11809;56.390;-3.266;2023-06-22T11:46:09;8.48;;;2.13;;
23280;SDS011;11809;56.390;-3.266;2023-06-22T11:48:36;8.70;;;2.40;;
23280;SDS011;11809;56.390;-3.266;2023-06-22T11:51:04;4.65;;;2.38;;
23280;SDS011;11809;56.390;-3.266;2023-06-22T11:53:33;9.05;;;2.38;;
23280;SDS011;11809;56.390;-3.266;2023-06-22T11:56:01;15.20;;;2.72;;
23280;SDS011;11809;56.390;-3.266;2023-06-22T11:58:28;9.30;;;2.67;;
23280;SDS011;11809;56.390;-3.266;2023-06-22T12:00:55;19.98;;;2.65;;
23280;SDS011;11809;56.390;-3.266;2023-06-22T12:03:23;26.08;;;3.35;;
23280;SDS011;11809;56.390;-3.266;2023-06-22T12:05:50;22.02;;;2.80;;
23280;SDS011;11809;56.390;-3.266;2023-06-22T12:08:19;23.45;;;3.50;;
23280;SDS011;11809;56.390;-3.266;2023-06-22T12:10:46;33.03;;;3.38;;
23280;SDS011;11809;56.390;-3.266;2023-06-22T12:13:13;16.40;;;2.80;;
23280;SDS011;11809;56.390;-3.266;2023-06-22T12:15:40;18.95;;;3.00;;
23280;SDS011;11809;56.390;-3.266;2023-06-22T12:18:07;12.82;;;2.97;;
23280;SDS011;11809;56.390;-3.266;2023-06-22T12:20:35;19.13;;;2.92;;
23280;SDS011;11809;56.390;-3.266;2023-06-22T12:23:02;22.08;;;3.05;;
23280;SDS011;11809;56.390;-3.266;2023-06-22T12:25:30;16.58;;;2.90;;
23280;SDS011;11809;56.390;-3.266;2023-06-22T12:27:57;19.73;;;3.72;;
23280;SDS011;11809;56.390;-3.266;2023-06-22T12:30:24;13.95;;;3.00;;
23280;SDS011;11809;56.390;-3.266;2023-06-22T12:32:51;26.45;;;2.88;;
23280;SDS011;11809;56.390;-3.266;2023-06-22T12:35:22;15.10;;;3.00;;
23280;SDS011;11809;56.390;-3.266;2023-06-22T12:37:49;60.35;;;5.75;;
23280;SDS011;11809;56.390;-3.266;2023-06-22T12:40:16;25.08;;;3.67;;
23280;SDS011;11809;56.390;-3.266;2023-06-22T12:42:44;23.85;;;3.28;;
23280;SDS011;11809;56.390;-3.266;2023-06-22T12:45:12;19.83;;;3.55;;
23280;SDS011;11809;56.390;-3.266;2023-06-22T12:47:39;21.45;;;3.42;;
23280;SDS011;11809;56.390;-3.266;2023-06-22T12:50:06;26.40;;;3.55;;
23280;SDS011;11809;56.390;-3.266;2023-06-22T12:52:36;15.30;;;2.90;;
23280;SDS011;11809;56.390;-3.266;2023-06-22T12:55:06;22.40;;;2.85;;
23280;SDS011;11809;56.390;-3.266;2023-06-22T12:57:34;22.98;;;3.42;;
23280;SDS011;11809;56.390;-3.266;2023-06-22T13:00:01;14.73;;;2.83;;
23280;SDS011;11809;56.390;-3.266;2023-06-22T13:02:28;12.05;;;2.65;;
23280;SDS011;11809;56.390;-3.266;2023-06-22T13:04:56;16.40;;;3.28;;
23280;SDS011;11809;56.390;-3.266;2023-06-22T13:07:23;10.93;;;2.42;;
23280;SDS011;11809;56.390;-3.266;2023-06-22T13:09:50;13.73;;;2.88;;
23280;SDS011;11809;56.390;-3.266;2023-06-22T13:12:20;12.88;;;2.35;;
23280;SDS011;11809;56.390;-3.266;2023-06-22T13:14:48;11.95;;;3.28;;
23280;SDS011;11809;56.390;-3.266;2023-06-22T13:17:15;11.85;;;2.80;;
23280;SDS011;11809;56.390;-3.266;2023-06-22T13:19:43;16.48;;;2.30;;
23280;SDS011;11809;56.390;-3.266;2023-06-22T13:22:29;16.90;;;2.72;;
23280;SDS011;11809;56.390;-3.266;2023-06-22T13:25:07;11.52;;;2.38;;
23280;SDS011;11809;56.390;-3.266;2023-06-22T13:27:39;8.02;;;2.17;;
23280;SDS011;11809;56.390;-3.266;2023-06-22T13:30:08;8.50;;;2.80;;
23280;SDS011;11809;56.390;-3.266;2023-06-22T13:32:40;40.03;;;3.80;;
23280;SDS011;11809;56.390;-3.266;2023-06-22T13:35:11;67.05;;;4.95;;
23280;SDS011;11809;56.390;-3.266;2023-06-22T13:37:39;65.82;;;5.70;;
23280;SDS011;11809;56.390;-3.266;2023-06-22T13:40:07;69.15;;;5.55;;
23280;SDS011;11809;56.390;-3.266;2023-06-22T13:42:34;67.88;;;5.85;;
23280;SDS011;11809;56.390;-3.266;2023-06-22T13:45:02;57.90;;;5.75;;
23280;SDS011;11809;56.390;-3.266;2023-06-22T13:47:30;32.97;;;4.50;;
23280;SDS011;11809;56.390;-3.266;2023-06-22T13:49:57;43.58;;;3.75;;
23280;SDS011;11809;56.390;-3.266;2023-06-22T13:52:25;41.05;;;3.80;;
23280;SDS011;11809;56.390;-3.266;2023-06-22T13:54:53;80.93;;;5.88;;
23280;SDS011;11809;56.390;-3.266;2023-06-22T13:57:20;35.75;;;3.95;;
23280;SDS011;11809;56.390;-3.266;2023-06-22T13:59:47;49.33;;;4.43;;
23280;SDS011;11809;56.390;-3.266;2023-06-22T14:02:15;29.13;;;3.20;;
23280;SDS011;11809;56.390;-3.266;2023-06-22T14:04:42;70.55;;;5.88;;
23280;SDS011;11809;56.390;-3.266;2023-06-22T14:07:09;50.47;;;4.32;;
23280;SDS011;11809;56.390;-3.266;2023-06-22T14:09:38;37.88;;;4.30;;
23280;SDS011;11809;56.390;-3.266;2023-06-22T14:12:05;35.22;;;3.88;;
23280;SDS011;11809;56.390;-3.266;2023-06-22T14:14:33;21.23;;;3.28;;
23280;SDS011;11809;56.390;-3.266;2023-06-22T14:17:01;28.08;;;4.53;;
23280;SDS011;11809;56.390;-3.266;2023-06-22T14:19:28;40.65;;;4.07;;
23280;SDS011;11809;56.390;-3.266;2023-06-22T14:21:55;16.55;;;3.25;;
23280;SDS011;11809;56.390;-3.266;2023-06-22T14:24:26;17.48;;;3.08;;
23280;SDS011;11809;56.390;-3.266;2023-06-22T14:26:56;15.80;;;3.03;;
23280;SDS011;11809;56.390;-3.266;2023-06-22T14:29:25;9.65;;;2.42;;
23280;SDS011;11809;56.390;-3.266;2023-06-22T14:31:53;17.30;;;3.08;;
23280;SDS011;11809;56.390;-3.266;2023-06-22T14:34:21;43.22;;;4.70;;
23280;SDS011;11809;56.390;-3.266;2023-06-22T14:36:49;13.88;;;3.10;;
23280;SDS011;11809;56.390;-3.266;2023-06-22T14:39:16;23.65;;;3.75;;
23280;SDS011;11809;56.390;-3.266;2023-06-22T14:41:43;94.47;;;6.47;;